Time;durP1;ratioP1;P1;durP2;ratioP2;P2;SDS_P1;SDS_P2;PMS_P1;PMS_P2;Temp;Humidity;BMP_temperature;BMP_pressure;BME280_temperature;BME280_humidity;BME280_pressure;Samples;Min_cycle;Max_cycle;Signal;HPM_P1;HPM_P2
2022/08/26 00:01:25;;;;;;;29.17;14.43;;;20.60;99.90;;;;;;4978493;28;20055;-67
2022/08/26 00:03:51;;;;;;;23.95;13.75;;;20.60;99.90;;;;;;4978688;28;20393;-66
2022/08/26 00:06:17;;;;;;;23.38;12.77;;;20.60;99.90;;;;;;4978417;28;20043;-67
2022/08/26 00:08:43;;;;;;;19.15;11.25;;;20.60;99.90;;;;;;4978741;28;20047;-67
2022/08/26 00:11:09;;;;;;;17.75;10.75;;;20.60;99.90;;;;;;4961723;28;20046;-67
2022/08/26 00:13:35;;;;;;;18.42;10.13;;;20.60;99.90;;;;;;4978817;28;20047;-67
2022/08/26 00:16:02;;;;;;;17.73;9.70;;;20.60;99.90;;;;;;4978340;28;20039;-67
2022/08/26 00:18:27;;;;;;;26.83;10.95;;;20.60;99.90;;;;;;4978423;28;20039;-68
2022/08/26 00:20:53;;;;;;;18.63;10.48;;;20.50;99.90;;;;;;4961268;28;20489;-67
2022/08/26 00:23:19;;;;;;;19.40;9.88;;;20.50;99.90;;;;;;4978502;28;20059;-66
2022/08/26 00:25:45;;;;;;;17.48;9.60;;;20.50;99.90;;;;;;4978334;28;20101;-68
2022/08/26 00:28:11;;;;;;;18.63;9.30;;;20.50;99.90;;;;;;4978310;28;20053;-68
2022/08/26 00:30:37;;;;;;;15.52;9.10;;;20.50;99.90;;;;;;4978369;28;20093;-66
2022/08/26 00:33:04;;;;;;;17.83;8.05;;;20.50;99.90;;;;;;4978329;28;20042;-65
2022/08/26 00:35:31;;;;;;;17.83;8.23;;;20.40;99.90;;;;;;4960617;28;20046;-66
2022/08/26 00:37:58;;;;;;;18.58;7.82;;;20.40;99.90;;;;;;4978282;28;20047;-67
2022/08/26 00:40:36;;;;;;;15.57;8.35;;;20.40;99.90;;;;;;4961478;28;20047;-65
2022/08/26 00:43:04;;;;;;;23.17;7.88;;;20.40;99.90;;;;;;4978139;28;20047;-68
2022/08/26 00:45:48;;;;;;;18.23;7.13;;;20.40;99.90;;;;;;4978113;28;20389;-67
2022/08/26 00:48:16;;;;;;;15.25;6.25;;;20.50;99.90;;;;;;4978228;28;20047;-66
2022/08/26 00:50:49;;;;;;;13.10;6.25;;;20.40;99.90;;;;;;4977157;28;20108;-68
2022/08/26 00:53:21;;;;;;;13.15;5.93;;;20.40;99.90;;;;;;4960596;28;20046;-67
2022/08/26 00:55:52;;;;;;;19.20;5.97;;;20.40;99.90;;;;;;4960332;28;20528;-65
2022/08/26 00:58:18;;;;;;;17.17;5.82;;;20.40;99.90;;;;;;4977737;28;20377;-67
2022/08/26 01:00:43;;;;;;;14.00;5.03;;;20.40;99.90;;;;;;4977296;28;20050;-67
2022/08/26 01:03:10;;;;;;;18.15;5.30;;;20.40;99.90;;;;;;4976775;28;20387;-66
2022/08/26 01:05:38;;;;;;;15.07;5.28;;;20.30;99.90;;;;;;4977375;28;20062;-68
2022/08/26 01:08:04;;;;;;;11.55;4.38;;;20.40;99.90;;;;;;4977495;28;20062;-67
2022/08/26 01:10:30;;;;;;;11.77;3.80;;;20.30;99.90;;;;;;4977503;28;20369;-66
2022/08/26 01:13:05;;;;;;;13.73;5.30;;;20.20;99.90;;;;;;4977419;28;20047;-67
2022/08/26 01:15:38;;;;;;;11.60;3.85;;;20.20;99.90;;;;;;4977337;28;20069;-66
2022/08/26 01:18:06;;;;;;;10.15;3.65;;;20.20;99.90;;;;;;4977097;28;20050;-66
2022/08/26 01:21:10;;;;;;;19.38;3.83;;;20.20;99.90;;;;;;4976909;28;20061;-66
2022/08/26 01:23:43;;;;;;;19.70;4.10;;;20.10;99.90;;;;;;4977097;28;20059;-68
2022/08/26 01:26:13;;;;;;;10.83;4.03;;;20.00;99.90;;;;;;4977376;28;20078;-67
2022/08/26 01:28:40;;;;;;;17.45;3.92;;;20.00;99.90;;;;;;4977366;28;20047;-67
2022/08/26 01:31:11;;;;;;;8.65;2.90;;;19.90;99.90;;;;;;4960223;28;20046;-66
2022/08/26 01:33:47;;;;;;;9.38;2.75;;;19.90;99.90;;;;;;4959566;28;20058;-66
2022/08/26 01:36:14;;;;;;;10.43;2.85;;;20.00;99.90;;;;;;4977057;28;20046;-67
2022/08/26 01:38:40;;;;;;;8.38;3.38;;;19.90;99.90;;;;;;4977065;28;20047;-66
2022/08/26 01:41:08;;;;;;;10.82;3.05;;;19.90;99.90;;;;;;4976694;28;20069;-67
2022/08/26 01:43:36;;;;;;;11.18;2.85;;;20.00;99.90;;;;;;4976707;28;20122;-68
2022/08/26 01:46:02;;;;;;;6.47;2.80;;;20.00;99.90;;;;;;4976651;28;20055;-67
2022/08/26 01:48:32;;;;;;;10.52;3.70;;;19.90;99.90;;;;;;4960384;28;20105;-67
2022/08/26 01:51:02;;;;;;;8.93;2.60;;;19.90;99.90;;;;;;4959789;28;20075;-67
2022/08/26 01:53:28;;;;;;;7.60;2.53;;;20.00;99.90;;;;;;4976802;28;20042;-66
2022/08/26 01:55:57;;;;;;;6.38;2.50;;;19.90;99.90;;;;;;4976847;28;20401;-65
2022/08/26 01:58:29;;;;;;;15.02;2.97;;;20.00;99.90;;;;;;4976587;28;20042;-65
2022/08/26 02:00:55;;;;;;;15.18;3.05;;;19.90;99.90;;;;;;4976298;28;20050;-67
2022/08/26 02:03:21;;;;;;;12.23;2.70;;;19.90;99.90;;;;;;4976523;28;20143;-68
2022/08/26 02:05:49;;;;;;;10.82;2.92;;;19.90;99.90;;;;;;4959595;28;20035;-66
2022/08/26 02:08:16;;;;;;;14.85;3.20;;;19.80;99.90;;;;;;4976079;28;20417;-67
2022/08/26 02:10:42;;;;;;;9.65;3.03;;;19.90;99.90;;;;;;4976703;28;20079;-67
2022/08/26 02:13:10;;;;;;;10.25;3.20;;;19.90;99.90;;;;;;4976228;28;20571;-67
2022/08/26 02:15:39;;;;;;;14.30;3.25;;;19.90;99.90;;;;;;4976297;28;20050;-67
2022/08/26 02:18:04;;;;;;;16.00;2.85;;;20.00;99.90;;;;;;4959089;28;20090;-67
2022/08/26 02:20:30;;;;;;;16.55;3.88;;;20.00;99.90;;;;;;4976324;28;20074;-67
2022/08/26 02:22:56;;;;;;;14.43;3.22;;;19.90;99.90;;;;;;4976737;28;20042;-67
2022/08/26 02:25:51;;;;;;;14.32;3.00;;;20.00;99.90;;;;;;4976239;28;20050;-66
2022/08/26 02:28:17;;;;;;;10.70;2.90;;;20.00;99.90;;;;;;4959130;28;20046;-68
2022/08/26 02:30:44;;;;;;;16.65;3.30;;;20.00;99.90;;;;;;4976251;28;20039;-66
2022/08/26 02:33:10;;;;;;;18.33;4.18;;;19.90;99.90;;;;;;4976128;28;20058;-66
2022/08/26 02:35:36;;;;;;;11.00;2.90;;;19.90;99.90;;;;;;4976297;28;20366;-66
2022/08/26 02:38:04;;;;;;;13.73;3.92;;;20.00;99.90;;;;;;4976077;28;20078;-67
2022/08/26 02:40:34;;;;;;;12.93;3.45;;;20.00;99.90;;;;;;4975822;28;20521;-67
2022/08/26 02:42:59;;;;;;;14.57;4.53;;;19.90;99.90;;;;;;4975935;28;20035;-69
2022/08/26 02:45:27;;;;;;;16.85;3.85;;;19.80;99.90;;;;;;4975970;28;20497;-66
2022/08/26 02:47:54;;;;;;;18.85;4.32;;;19.90;99.90;;;;;;4976407;28;20431;-66
2022/08/26 02:50:21;;;;;;;15.20;3.38;;;19.80;99.90;;;;;;4976057;28;20468;-67
2022/08/26 02:52:47;;;;;;;21.05;3.90;;;19.90;99.90;;;;;;4975756;28;20133;-67
2022/08/26 02:55:14;;;;;;;13.30;3.53;;;19.90;99.90;;;;;;4975987;28;20047;-65
2022/08/26 02:57:40;;;;;;;10.70;2.67;;;19.80;99.90;;;;;;4942415;28;20090;-67
2022/08/26 03:00:07;;;;;;;13.65;3.33;;;19.80;99.90;;;;;;4975789;28;20101;-67
2022/08/26 03:02:33;;;;;;;13.40;3.10;;;19.80;99.90;;;;;;4976041;28;20114;-66
2022/08/26 03:04:59;;;;;;;16.73;3.30;;;19.80;99.90;;;;;;4975917;28;20158;-67
2022/08/26 03:07:24;;;;;;;18.02;3.47;;;19.80;99.90;;;;;;4975938;28;20065;-65
2022/08/26 03:09:51;;;;;;;13.80;3.28;;;19.80;99.90;;;;;;4976102;28;20105;-66
2022/08/26 03:12:19;;;;;;;11.20;2.85;;;19.80;99.90;;;;;;4975115;28;20528;-67
2022/08/26 03:14:45;;;;;;;13.30;3.50;;;19.80;99.90;;;;;;4975886;28;20516;-66
2022/08/26 03:17:11;;;;;;;13.82;2.88;;;19.80;99.90;;;;;;4975848;28;20051;-67
2022/08/26 03:19:37;;;;;;;20.92;3.42;;;19.80;99.90;;;;;;4958974;28;20477;-66
2022/08/26 03:22:03;;;;;;;19.95;3.70;;;19.80;99.90;;;;;;4979215;28;20385;-66
2022/08/26 03:24:29;;;;;;;19.10;6.93;;;19.90;99.90;;;;;;4962386;28;20043;-68
2022/08/26 03:26:54;;;;;;;20.77;5.00;;;19.90;99.90;;;;;;4978845;28;20096;-66
2022/08/26 03:32:05;;;;;;;16.27;4.55;;;19.90;99.90;;;;;;4979423;28;20054;-67
2022/08/26 03:34:31;;;;;;;24.13;3.92;;;19.80;99.90;;;;;;4979443;28;20050;-66
2022/08/26 03:36:56;;;;;;;12.50;3.15;;;19.80;99.90;;;;;;4979216;28;20054;-67
2022/08/26 03:39:22;;;;;;;18.08;4.07;;;19.80;99.90;;;;;;4979263;28;20045;-66
2022/08/26 03:41:48;;;;;;;10.30;3.28;;;19.80;99.90;;;;;;4978540;28;20453;-67
2022/08/26 03:44:13;;;;;;;17.77;3.85;;;19.80;99.90;;;;;;4979071;28;20355;-67
2022/08/26 03:46:39;;;;;;;13.90;3.67;;;19.80;99.90;;;;;;4979044;28;20035;-67
2022/08/26 03:49:05;;;;;;;16.35;3.63;;;19.80;99.90;;;;;;4979259;28;20065;-66
2022/08/26 03:51:36;;;;;;;15.57;4.15;;;19.80;99.90;;;;;;4979004;28;20039;-67
2022/08/26 03:54:02;;;;;;;15.18;3.42;;;19.80;99.90;;;;;;4979022;28;20050;-65
2022/08/26 03:56:29;;;;;;;10.82;2.92;;;19.80;99.90;;;;;;4978698;28;20433;-66
2022/08/26 03:58:55;;;;;;;16.42;4.25;;;19.80;99.90;;;;;;4978949;28;20134;-66
2022/08/26 04:01:21;;;;;;;10.25;3.53;;;19.70;99.90;;;;;;4978810;28;20143;-66
2022/08/26 04:03:59;;;;;;;14.50;4.22;;;19.80;99.90;;;;;;4978967;28;20047;-67
2022/08/26 04:06:28;;;;;;;8.25;3.15;;;19.80;99.90;;;;;;4978609;28;20500;-69
2022/08/26 04:08:55;;;;;;;9.93;3.47;;;19.80;99.90;;;;;;4977541;28;20510;-66
2022/08/26 04:11:23;;;;;;;11.98;3.30;;;19.70;99.90;;;;;;4978731;28;20126;-67
2022/08/26 04:13:49;;;;;;;13.85;4.03;;;19.80;99.90;;;;;;4961837;28;20046;-68
2022/08/26 04:16:16;;;;;;;12.95;3.45;;;19.80;99.90;;;;;;4978220;28;20138;-67
2022/08/26 04:18:42;;;;;;;14.02;3.33;;;19.80;99.90;;;;;;4977839;28;20446;-67
2022/08/26 04:21:08;;;;;;;14.95;3.38;;;19.80;99.90;;;;;;4977807;28;20053;-67
2022/08/26 04:23:34;;;;;;;15.80;3.95;;;19.80;99.90;;;;;;4978541;28;20057;-66
2022/08/26 04:26:00;;;;;;;12.48;3.20;;;19.70;99.90;;;;;;4977963;28;20050;-67
2022/08/26 04:28:27;;;;;;;12.15;3.17;;;19.70;99.90;;;;;;4978348;28;20069;-65
2022/08/26 04:30:53;;;;;;;12.18;3.30;;;19.70;99.90;;;;;;4977820;28;20042;-68
2022/08/26 04:33:18;;;;;;;17.63;4.50;;;19.70;99.90;;;;;;4978248;28;20117;-68
2022/08/26 04:35:44;;;;;;;15.35;3.15;;;19.70;99.90;;;;;;4978123;28;20146;-68
2022/08/26 04:38:10;;;;;;;13.60;3.35;;;19.70;99.90;;;;;;4961527;28;20047;-68
2022/08/26 04:40:41;;;;;;;18.45;3.83;;;19.70;99.90;;;;;;4977700;28;20070;-68
2022/08/26 04:43:06;;;;;;;15.10;4.40;;;19.70;99.90;;;;;;4978100;28;20051;-67
2022/08/26 04:45:36;;;;;;;19.65;3.63;;;19.60;99.90;;;;;;4977954;28;20447;-67
2022/08/26 04:48:02;;;;;;;11.57;3.47;;;19.70;99.90;;;;;;4978248;28;20058;-67
2022/08/26 04:50:27;;;;;;;17.95;4.63;;;19.50;99.90;;;;;;4977954;28;20047;-66
2022/08/26 04:52:54;;;;;;;16.60;3.63;;;19.50;99.90;;;;;;4977768;28;20414;-66
2022/08/26 04:55:19;;;;;;;11.93;3.92;;;19.50;99.90;;;;;;4976412;28;20122;-66
2022/08/26 04:57:45;;;;;;;15.50;3.80;;;19.40;99.90;;;;;;4977360;28;20089;-67
2022/08/26 05:00:12;;;;;;;11.38;3.72;;;19.40;99.90;;;;;;4971261;28;20476;-65
2022/08/26 05:02:38;;;;;;;12.40;3.25;;;19.30;99.90;;;;;;4974810;28;20058;-67
2022/08/26 05:05:06;;;;;;;12.85;3.30;;;19.30;99.90;;;;;;4977555;28;20377;-68
2022/08/26 05:07:33;;;;;;;12.43;3.08;;;19.30;99.90;;;;;;4977529;28;20047;-66
2022/08/26 05:09:59;;;;;;;17.25;3.58;;;19.30;99.90;;;;;;4977531;28;20441;-66
2022/08/26 05:12:24;;;;;;;10.52;2.88;;;19.30;99.90;;;;;;4977480;28;20102;-66
2022/08/26 05:14:51;;;;;;;14.85;3.20;;;19.40;99.90;;;;;;4977408;28;20042;-66
2022/08/26 05:17:16;;;;;;;18.38;3.40;;;19.40;99.90;;;;;;4977334;28;20101;-66
2022/08/26 05:19:42;;;;;;;12.77;2.92;;;19.40;99.90;;;;;;4976957;28;20401;-66
2022/08/26 05:22:08;;;;;;;13.88;2.95;;;19.40;99.90;;;;;;4977577;28;20039;-66
2022/08/26 05:24:33;;;;;;;10.23;2.83;;;19.40;99.90;;;;;;4977395;28;20047;-68
2022/08/26 05:26:59;;;;;;;16.17;3.45;;;19.40;99.90;;;;;;4977284;28;20094;-66
2022/08/26 05:29:24;;;;;;;14.27;3.42;;;19.40;99.90;;;;;;4977138;28;20358;-65
2022/08/26 05:31:52;;;;;;;15.27;3.65;;;19.40;99.90;;;;;;4976776;28;20357;-67
2022/08/26 05:34:18;;;;;;;18.73;2.90;;;19.40;99.90;;;;;;4977111;28;20151;-66
2022/08/26 05:36:43;;;;;;;17.95;3.28;;;19.40;99.90;;;;;;4976839;28;20133;-66
2022/08/26 05:39:09;;;;;;;12.50;3.40;;;19.40;99.90;;;;;;4976815;28;20384;-66
2022/08/26 05:41:37;;;;;;;17.15;3.03;;;19.40;99.90;;;;;;4976357;28;20047;-69
2022/08/26 05:44:07;;;;;;;14.25;2.75;;;19.40;99.90;;;;;;4975278;28;20058;-66
2022/08/26 05:46:34;;;;;;;17.77;3.28;;;19.40;99.90;;;;;;4977014;28;20051;-66
2022/08/26 05:49:00;;;;;;;8.68;2.63;;;19.40;99.90;;;;;;4977047;28;20133;-65
2022/08/26 05:51:25;;;;;;;16.98;3.20;;;19.40;99.90;;;;;;4976515;28;20466;-66
2022/08/26 05:53:52;;;;;;;13.95;4.28;;;19.40;99.90;;;;;;4959710;28;20059;-66
2022/08/26 05:56:23;;;;;;;11.75;2.70;;;19.40;99.90;;;;;;4976738;28;20513;-65
2022/08/26 05:58:49;;;;;;;12.27;3.90;;;19.40;99.90;;;;;;4976548;28;20051;-66
2022/08/26 06:01:18;;;;;;;8.55;2.22;;;19.50;99.90;;;;;;4976878;28;20074;-66
2022/08/26 06:03:47;;;;;;;13.43;3.13;;;19.50;99.90;;;;;;4976723;28;20043;-68
2022/08/26 06:06:19;;;;;;;14.52;2.95;;;19.50;99.90;;;;;;4975638;28;20034;-65
2022/08/26 06:08:46;;;;;;;10.75;2.70;;;19.50;99.90;;;;;;4976445;28;20358;-65
2022/08/26 06:11:14;;;;;;;15.23;3.35;;;19.50;99.90;;;;;;4976383;28;20469;-67
2022/08/26 06:13:40;;;;;;;12.90;2.50;;;19.50;99.90;;;;;;4976586;28;20047;-69
2022/08/26 06:16:09;;;;;;;9.93;2.55;;;19.50;99.90;;;;;;4976304;28;20073;-66
2022/08/26 06:18:37;;;;;;;12.90;3.67;;;19.50;99.90;;;;;;4976346;28;20046;-66
2022/08/26 06:21:24;;;;;;;11.75;3.00;;;19.50;99.90;;;;;;4976211;28;20357;-68
2022/08/26 06:26:38;;;;;;;13.50;2.55;;;19.50;99.90;;;;;;4976309;28;20134;-66
2022/08/26 06:29:04;;;;;;;13.35;3.65;;;19.50;99.90;;;;;;4976288;28;20126;-67
2022/08/26 06:31:32;;;;;;;8.32;3.03;;;19.50;99.90;;;;;;4976381;28;20035;-67
2022/08/26 06:33:59;;;;;;;9.13;2.78;;;19.60;99.90;;;;;;4975983;28;20046;-67
2022/08/26 06:36:27;;;;;;;14.60;2.83;;;19.60;99.90;;;;;;4975985;28;20042;-69
2022/08/26 06:38:54;;;;;;;14.23;3.80;;;19.70;99.90;;;;;;4976109;28;20051;-66
2022/08/26 06:41:21;;;;;;;9.18;2.80;;;19.70;99.90;;;;;;4976264;28;20054;-66
2022/08/26 06:43:48;;;;;;;9.40;2.47;;;19.70;99.90;;;;;;4976264;28;20081;-68
2022/08/26 06:46:16;;;;;;;13.68;3.88;;;19.60;99.90;;;;;;4976140;28;20373;-69
2022/08/26 06:48:43;;;;;;;13.15;2.90;;;19.70;99.90;;;;;;4975427;28;20047;-67
2022/08/26 06:51:12;;;;;;;11.93;2.60;;;19.80;99.90;;;;;;4957963;28;20047;-69
2022/08/26 06:53:39;;;;;;;11.10;2.58;;;19.70;99.90;;;;;;4976521;28;20051;-69
2022/08/26 06:56:07;;;;;;;9.55;3.60;;;19.70;99.90;;;;;;4979880;28;20047;-69
2022/08/26 06:58:34;;;;;;;11.73;2.58;;;19.80;99.90;;;;;;4979807;28;20046;-68
2022/08/26 07:01:00;;;;;;;12.00;3.42;;;19.80;99.90;;;;;;4979843;28;20042;-69
2022/08/26 07:03:26;;;;;;;12.00;2.85;;;19.90;99.90;;;;;;4979692;28;20062;-69
2022/08/26 07:05:51;;;;;;;10.95;2.65;;;19.80;99.90;;;;;;4979693;28;20043;-69
2022/08/26 07:08:17;;;;;;;14.32;3.08;;;19.80;99.90;;;;;;4980203;28;20082;-69
2022/08/26 07:10:43;;;;;;;10.55;2.10;;;19.90;99.90;;;;;;4979815;28;20440;-70
2022/08/26 07:13:09;;;;;;;11.77;3.00;;;19.90;99.90;;;;;;4979832;28;20053;-67
2022/08/26 07:15:41;;;;;;;11.77;2.53;;;19.90;99.90;;;;;;4978974;28;20043;-69
2022/08/26 07:18:08;;;;;;;14.18;2.40;;;19.90;99.90;;;;;;4979377;28;20101;-68
2022/08/26 07:20:39;;;;;;;7.40;2.28;;;19.90;99.90;;;;;;4979339;28;20042;-69
2022/08/26 07:23:09;;;;;;;10.60;2.10;;;19.80;99.90;;;;;;4979672;28;20054;-69
2022/08/26 07:25:38;;;;;;;14.32;3.28;;;19.80;99.90;;;;;;4979566;28;20058;-69
2022/08/26 07:28:04;;;;;;;12.70;3.00;;;19.90;99.90;;;;;;4979382;28;20051;-69
2022/08/26 07:30:30;;;;;;;10.63;2.40;;;19.90;99.90;;;;;;4978796;28;20469;-68
2022/08/26 07:32:57;;;;;;;11.15;3.20;;;20.00;99.90;;;;;;4978994;28;20062;-68
2022/08/26 07:35:24;;;;;;;12.02;2.55;;;20.10;99.90;;;;;;4979381;28;20082;-68
2022/08/26 07:37:50;;;;;;;13.48;2.58;;;20.10;99.90;;;;;;4979403;28;20114;-70
2022/08/26 07:40:16;;;;;;;9.13;2.35;;;20.10;99.90;;;;;;4979034;28;20393;-69
2022/08/26 07:42:42;;;;;;;12.52;2.95;;;20.10;99.90;;;;;;4979133;28;20109;-70
2022/08/26 07:45:08;;;;;;;9.27;2.10;;;20.10;99.90;;;;;;4978890;28;20051;-69
2022/08/26 07:47:33;;;;;;;8.30;1.98;;;20.10;99.90;;;;;;4979064;28;20057;-68
2022/08/26 07:49:59;;;;;;;9.43;2.50;;;20.10;99.90;;;;;;4979094;28;20061;-69
2022/08/26 07:52:27;;;;;;;8.63;2.53;;;19.90;99.90;;;;;;4978937;28;20125;-70
2022/08/26 07:54:58;;;;;;;15.75;3.10;;;19.90;99.90;;;;;;4978748;28;20046;-68
2022/08/26 07:57:25;;;;;;;10.13;2.17;;;19.80;99.90;;;;;;4978950;28;20066;-69
2022/08/26 07:59:52;;;;;;;16.25;3.08;;;19.80;99.90;;;;;;4978918;28;20139;-69
2022/08/26 08:02:17;;;;;;;11.27;2.55;;;19.80;99.90;;;;;;4978860;28;20509;-68
2022/08/26 08:04:43;;;;;;;24.60;3.97;;;19.70;99.90;;;;;;4978789;28;20076;-69
2022/08/26 08:07:09;;;;;;;15.43;2.63;;;19.60;99.90;;;;;;4977948;28;20532;-69
2022/08/26 08:09:34;;;;;;;10.70;3.05;;;19.60;99.90;;;;;;4978322;28;20093;-68
2022/08/26 08:12:00;;;;;;;13.70;2.83;;;19.50;99.90;;;;;;4978695;28;20122;-69
2022/08/26 08:14:26;;;;;;;13.15;2.65;;;19.50;99.90;;;;;;4978802;28;20370;-69
2022/08/26 08:16:52;;;;;;;8.80;2.75;;;19.60;99.90;;;;;;4978482;28;20062;-70
2022/08/26 08:19:17;;;;;;;9.93;2.30;;;19.50;99.90;;;;;;4978551;28;20385;-69
2022/08/26 08:21:44;;;;;;;10.88;3.15;;;19.60;99.90;;;;;;4978533;28;20051;-69
2022/08/26 08:24:10;;;;;;;9.00;2.65;;;19.50;99.90;;;;;;4977942;28;20035;-69
2022/08/26 08:26:35;;;;;;;7.13;1.92;;;19.60;99.90;;;;;;4958979;29;20047;-69
2022/08/26 08:29:01;;;;;;;10.48;2.55;;;19.50;99.90;;;;;;4958983;29;20051;-69
2022/08/26 08:31:29;;;;;;;10.90;2.78;;;19.60;99.90;;;;;;4959257;29;20127;-68
2022/08/26 08:33:54;;;;;;;9.90;2.05;;;19.70;99.90;;;;;;4941962;29;20043;-69
2022/08/26 08:36:21;;;;;;;11.27;2.10;;;19.60;99.90;;;;;;4958911;29;20043;-69
2022/08/26 08:38:47;;;;;;;9.18;2.75;;;19.60;99.90;;;;;;4973915;28;20057;-68
2022/08/26 08:41:36;;;;;;;9.90;1.95;;;19.80;99.90;;;;;;4978211;28;20985;-69
2022/08/26 08:44:07;;;;;;;13.50;2.58;;;19.80;99.90;;;;;;4978209;28;20046;-69
2022/08/26 08:46:33;;;;;;;11.23;2.72;;;19.80;99.90;;;;;;4978525;28;20412;-69
2022/08/26 08:48:59;;;;;;;18.17;4.35;;;19.90;99.90;;;;;;4978182;28;20074;-69
2022/08/26 08:51:57;;;;;;;10.50;2.83;;;19.80;99.90;;;;;;4977135;28;20050;-68
2022/08/26 08:54:25;;;;;;;9.13;2.25;;;19.90;99.90;;;;;;4972939;28;20062;-69
2022/08/26 08:57:10;;;;;;;10.00;1.95;;;19.80;99.90;;;;;;4977836;28;20512;-69
2022/08/26 08:59:46;;;;;;;10.68;2.63;;;19.70;99.90;;;;;;4977265;28;20454;-70
2022/08/26 09:02:22;;;;;;;8.77;2.03;;;19.70;99.90;;;;;;4976691;28;20061;-70
2022/08/26 09:05:10;;;;;;;7.90;2.13;;;19.70;99.90;;;;;;4977362;28;20136;-69
2022/08/26 09:07:47;;;;;;;11.55;2.63;;;19.60;99.90;;;;;;4978017;28;20055;-70
2022/08/26 09:10:31;;;;;;;13.57;2.70;;;19.70;99.90;;;;;;4977540;28;20445;-69
2022/08/26 09:12:57;;;;;;;8.17;2.93;;;19.70;99.90;;;;;;4960569;28;20109;-69
2022/08/26 09:15:56;;;;;;;12.45;3.75;;;19.70;99.90;;;;;;4977238;28;20457;-68
2022/08/26 09:19:00;;;;;;;10.02;2.38;;;19.70;99.90;;;;;;4976989;28;20126;-70
2022/08/26 09:21:26;;;;;;;10.73;2.10;;;19.80;99.90;;;;;;4940339;28;20469;-70
2022/08/26 09:23:54;;;;;;;10.27;1.73;;;19.80;99.90;;;;;;4977483;28;20047;-69
2022/08/26 09:26:22;;;;;;;8.48;1.83;;;19.80;99.90;;;;;;4977299;28;20051;-69
2022/08/26 09:28:55;;;;;;;8.43;2.28;;;19.80;99.90;;;;;;4977320;28;20047;-70
2022/08/26 09:31:34;;;;;;;9.38;1.80;;;19.80;99.90;;;;;;4976753;28;20062;-70
2022/08/26 09:34:23;;;;;;;6.15;1.55;;;19.90;99.90;;;;;;4976803;28;20047;-69
2022/08/26 09:36:57;;;;;;;9.52;1.77;;;19.90;99.90;;;;;;4977247;28;20042;-68
2022/08/26 09:39:22;;;;;;;6.63;1.90;;;20.00;99.90;;;;;;4977205;28;20079;-69
2022/08/26 09:42:05;;;;;;;6.97;1.70;;;19.90;99.90;;;;;;4977106;28;20503;-69
2022/08/26 09:44:32;;;;;;;6.07;1.88;;;20.00;99.90;;;;;;4976869;28;20079;-69
2022/08/26 09:47:07;;;;;;;7.38;2.00;;;20.10;99.90;;;;;;4976854;28;20121;-69
2022/08/26 09:49:39;;;;;;;10.43;2.40;;;20.10;99.90;;;;;;4977055;28;20047;-69
2022/08/26 09:52:23;;;;;;;9.57;1.67;;;20.10;99.90;;;;;;4976944;28;20142;-70
2022/08/26 09:55:18;;;;;;;12.88;3.03;;;20.10;99.90;;;;;;4976701;28;20109;-69
2022/08/26 09:57:50;;;;;;;7.88;2.22;;;20.00;99.90;;;;;;4976745;28;20047;-69
2022/08/26 10:00:29;;;;;;;9.52;1.85;;;19.90;99.90;;;;;;4975500;28;20051;-69
2022/08/26 10:02:57;;;;;;;7.60;2.58;;;19.80;99.90;;;;;;4976746;28;20058;-68
2022/08/26 10:05:47;;;;;;;8.65;2.10;;;19.60;99.90;;;;;;4976379;28;20394;-68
2022/08/26 10:08:23;;;;;;;7.13;1.85;;;19.60;99.90;;;;;;4976806;28;20122;-70
2022/08/26 10:10:50;;;;;;;11.93;2.13;;;19.50;99.90;;;;;;4976541;28;20042;-69
2022/08/26 10:13:22;;;;;;;11.00;2.40;;;19.50;99.90;;;;;;4976372;28;20086;-69
2022/08/26 10:16:14;;;;;;;8.00;1.75;;;19.50;99.90;;;;;;4976110;28;20043;-69
2022/08/26 10:18:55;;;;;;;8.90;2.50;;;19.60;99.90;;;;;;4976414;28;20455;-68
2022/08/26 10:21:58;;;;;;;14.77;2.40;;;19.60;99.90;;;;;;4976243;28;20057;-69
2022/08/26 10:24:33;;;;;;;13.05;6.82;;;19.50;99.90;;;;;;4973680;28;20055;-70
2022/08/26 10:27:18;;;;;;;8.55;2.58;;;19.60;99.90;;;;;;4976681;28;20050;-70
2022/08/26 10:29:48;;;;;;;;;;;19.60;99.90;;;;;;4975836;28;20483;-70
2022/08/26 10:32:34;;;;;;;13.43;2.45;;;19.60;99.90;;;;;;4976201;28;19922;-70
2022/08/26 10:35:01;;;;;;;9.48;2.00;;;19.70;99.90;;;;;;4976277;28;20478;-69
2022/08/26 10:37:37;;;;;;;9.15;2.17;;;19.80;99.90;;;;;;4976192;28;20477;-69
2022/08/26 10:40:09;;;;;;;7.30;1.70;;;19.90;99.90;;;;;;4975495;28;20039;-69
2022/08/26 10:42:48;;;;;;;7.90;1.95;;;20.00;99.90;;;;;;4959277;28;20476;-69
2022/08/26 10:45:18;;;;;;;9.10;1.90;;;20.20;99.90;;;;;;4976295;28;20082;-68
2022/08/26 10:47:53;;;;;;;5.85;1.65;;;20.20;99.90;;;;;;4976206;28;20050;-69
2022/08/26 10:50:21;;;;;;;6.72;1.60;;;20.40;99.90;;;;;;4975996;28;20182;-68
2022/08/26 10:53:12;;;;;;;9.80;2.40;;;20.30;99.90;;;;;;4975552;28;20047;-69
2022/08/26 10:56:10;;;;;;;9.23;1.83;;;20.40;99.90;;;;;;4976308;28;20042;-69
2022/08/26 10:58:54;;;;;;;10.10;1.80;;;20.20;99.90;;;;;;4975677;28;20602;-69
2022/08/26 11:01:52;;;;;;;6.43;2.28;;;20.40;99.90;;;;;;4976024;28;20055;-69
2022/08/26 11:04:49;;;;;;;8.63;2.35;;;20.50;99.90;;;;;;4929863;28;20063;-69
2022/08/26 11:07:43;;;;;;;6.78;2.03;;;20.50;99.90;;;;;;4975569;28;20485;-69
2022/08/26 11:10:21;;;;;;;6.00;1.87;;;20.40;99.90;;;;;;4975704;28;20086;-69
2022/08/26 11:12:58;;;;;;;9.20;2.35;;;20.30;99.90;;;;;;4976093;28;20361;-68
2022/08/26 11:15:25;;;;;;;6.15;1.70;;;20.40;99.90;;;;;;4975668;28;20054;-69
2022/08/26 11:17:50;;;;;;;6.68;1.85;;;20.30;99.90;;;;;;4976197;28;20055;-70
2022/08/26 11:20:22;;;;;;;8.57;2.05;;;20.30;99.90;;;;;;4975422;28;20458;-70
2022/08/26 11:22:49;;;;;;;11.00;2.25;;;20.20;99.90;;;;;;4975797;28;20488;-69
2022/08/26 11:25:19;;;;;;;6.57;1.80;;;20.30;99.90;;;;;;4975963;28;20057;-69
2022/08/26 11:27:48;;;;;;;12.43;2.13;;;20.40;99.90;;;;;;4975630;28;20402;-70
2022/08/26 11:30:18;;;;;;;7.20;2.03;;;20.40;99.90;;;;;;4975522;28;20078;-69
2022/08/26 11:32:56;;;;;;;7.60;1.75;;;20.40;99.90;;;;;;4975635;28;20065;-68
2022/08/26 11:35:24;;;;;;;5.95;1.85;;;20.40;99.90;;;;;;4975524;28;20073;-69
2022/08/26 11:37:57;;;;;;;12.50;2.30;;;20.40;99.90;;;;;;4975876;28;20365;-70
2022/08/26 11:40:39;;;;;;;5.97;1.88;;;20.40;99.90;;;;;;4975929;28;20377;-69
2022/08/26 11:43:22;;;;;;;12.45;2.15;;;20.50;99.90;;;;;;4979141;28;20133;-69
2022/08/26 11:46:04;;;;;;;7.90;2.28;;;20.50;99.90;;;;;;4979246;28;20049;-69
2022/08/26 11:48:33;;;;;;;10.98;2.25;;;20.50;99.90;;;;;;4979307;28;20409;-69
2022/08/26 11:51:01;;;;;;;6.80;2.30;;;20.60;99.90;;;;;;4978680;28;20117;-69
2022/08/26 11:53:29;;;;;;;6.70;1.77;;;20.60;99.90;;;;;;4978911;28;20047;-69
2022/08/26 11:55:56;;;;;;;7.22;1.60;;;20.50;99.90;;;;;;4978934;28;20101;-68
2022/08/26 11:58:26;;;;;;;8.48;1.83;;;20.50;99.90;;;;;;4978974;28;20053;-69
2022/08/26 12:00:56;;;;;;;7.60;1.67;;;20.50;99.90;;;;;;4959480;29;20521;-69
2022/08/26 12:03:36;;;;;;;8.60;1.55;;;20.50;99.90;;;;;;4959466;29;20059;-70
2022/08/26 12:06:08;;;;;;;4.43;1.55;;;20.60;99.90;;;;;;4944143;29;20043;-69
2022/08/26 12:08:41;;;;;;;8.38;1.83;;;20.50;99.90;;;;;;4959222;29;20135;-69
2022/08/26 12:11:29;;;;;;;8.43;1.80;;;20.60;99.90;;;;;;4959474;29;20079;-69
2022/08/26 12:14:01;;;;;;;10.38;2.67;;;20.60;99.90;;;;;;4959175;29;20082;-69
2022/08/26 12:16:31;;;;;;;7.88;2.20;;;20.70;99.90;;;;;;4959184;29;20086;-69
2022/08/26 12:18:58;;;;;;;8.27;2.10;;;20.70;99.90;;;;;;4958866;29;20043;-69
2022/08/26 12:21:28;;;;;;;9.30;2.97;;;20.80;99.90;;;;;;4959469;29;20111;-69
2022/08/26 12:23:56;;;;;;;7.60;2.22;;;20.80;99.90;;;;;;4959248;29;20043;-69
2022/08/26 12:26:29;;;;;;;9.00;2.13;;;20.70;99.90;;;;;;4959106;29;20047;-70
2022/08/26 12:28:59;;;;;;;9.00;2.38;;;20.70;99.90;;;;;;4958814;29;20458;-69
2022/08/26 12:31:38;;;;;;;8.45;1.73;;;20.70;99.90;;;;;;4958366;29;20032;-68
2022/08/26 12:34:08;;;;;;;5.13;2.00;;;20.70;99.90;;;;;;4940051;29;20066;-69
2022/08/26 12:36:45;;;;;;;7.53;2.10;;;20.70;99.90;;;;;;4939816;29;20134;-70
2022/08/26 12:39:32;;;;;;;8.00;1.77;;;20.60;99.90;;;;;;4939419;29;20535;-69
2022/08/26 12:42:05;;;;;;;6.72;1.85;;;20.70;99.90;;;;;;4938565;29;20135;-69
2022/08/26 12:44:46;;;;;;;5.60;1.67;;;20.70;99.90;;;;;;4939811;29;20058;-69
2022/08/26 12:47:14;;;;;;;9.00;1.70;;;20.80;99.90;;;;;;4951623;29;20051;-68
2022/08/26 12:49:41;;;;;;;7.43;1.80;;;20.60;99.90;;;;;;4958365;29;20126;-69
2022/08/26 12:52:28;;;;;;;7.60;1.92;;;20.50;99.90;;;;;;4958213;28;20047;-69
2022/08/26 12:55:00;;;;;;;9.30;2.08;;;20.30;99.90;;;;;;4958613;29;20130;-68
2022/08/26 12:57:33;;;;;;;9.70;2.10;;;20.30;99.90;;;;;;4958691;29;20043;-69
2022/08/26 13:00:28;;;;;;;5.93;2.00;;;20.20;99.90;;;;;;4970809;28;20054;-69
2022/08/26 13:02:54;;;;;;;;;;;20.30;99.90;;;;;;4945011;28;20051;-70